Time;durP1;ratioP1;P1;durP2;ratioP2;P2;SDS_P1;SDS_P2;PMS_P1;PMS_P2;Temp;Humidity;BMP_temperature;BMP_pressure;BME280_temperature;BME280_humidity;BME280_pressure;Samples;Min_cycle;Max_cycle;Signal;HPM_P1;HPM_P2
2022/03/17 00:01:07;;;;;;;21.85;18.48;;;;;;;9.00;100.00;102047.63;6213403;23;20021;-79
2022/03/17 00:03:36;;;;;;;24.73;18.33;;;;;;;8.99;100.00;102022.16;6194425;23;20027;-78
2022/03/17 00:06:06;;;;;;;23.63;18.80;;;;;;;8.97;100.00;102037.00;6231584;23;20134;-78
2022/03/17 00:08:34;;;;;;;25.95;20.27;;;;;;;8.95;100.00;102018.53;6185412;23;20368;-78
2022/03/17 00:11:03;;;;;;;25.67;19.77;;;;;;;8.93;100.00;102022.88;6174810;23;20016;-77
2022/03/17 00:13:32;;;;;;;26.60;19.40;;;;;;;8.93;100.00;102011.47;6197122;23;20350;-78
2022/03/17 00:16:01;;;;;;;29.13;20.30;;;;;;;8.92;100.00;102007.03;6238178;23;20031;-79
2022/03/17 00:18:29;;;;;;;27.98;20.25;;;;;;;8.92;100.00;102009.66;6201778;23;20342;-77
2022/03/17 00:21:03;;;;;;;27.88;19.95;;;;;;;8.90;100.00;102006.13;6207216;23;20464;-78
2022/03/17 00:23:32;;;;;;;23.70;19.27;;;;;;;8.89;100.00;102010.50;6208192;23;20025;-78
2022/03/17 00:26:03;;;;;;;27.80;20.55;;;;;;;8.88;100.00;102003.44;6220087;23;20556;-78
2022/03/17 00:28:39;;;;;;;28.23;21.02;;;;;;;8.87;100.00;101999.03;6220705;23;20766;-80
2022/03/17 00:31:07;;;;;;;26.83;20.40;;;;;;;8.86;100.00;102002.50;6203483;23;20020;-78
2022/03/17 00:33:36;;;;;;;29.05;21.10;;;;;;;8.84;100.00;101993.69;6207077;23;20573;-79
2022/03/17 00:36:07;;;;;;;28.92;19.98;;;;;;;8.84;100.00;101992.81;6167153;23;20016;-79
2022/03/17 00:38:35;;;;;;;30.02;21.58;;;;;;;8.83;100.00;101997.19;6202048;23;20035;-78
2022/03/17 00:41:04;;;;;;;28.38;21.33;;;;;;;8.82;100.00;101992.75;6215690;23;20023;-79
2022/03/17 00:43:34;;;;;;;26.33;21.58;;;;;;;8.80;100.00;101993.56;6209892;23;20039;-79
2022/03/17 00:46:03;;;;;;;28.02;20.55;;;;;;;8.77;100.00;101992.63;6215053;23;20016;-78
2022/03/17 00:48:32;;;;;;;25.15;19.90;;;;;;;8.77;100.00;101992.63;6201911;23;20016;-78
2022/03/17 00:51:01;;;;;;;26.17;21.25;;;;;;;8.76;100.00;101989.97;6182238;23;20020;-78
2022/03/17 00:53:29;;;;;;;29.60;21.95;;;;;;;8.75;100.00;101991.69;6212885;23;20138;-78
2022/03/17 00:55:57;;;;;;;27.40;21.73;;;;;;;8.74;100.00;101989.03;6191286;23;20028;-79
2022/03/17 00:58:29;;;;;;;27.40;21.05;;;;;;;8.72;100.00;101986.34;6214367;23;20043;-78
2022/03/17 01:01:00;;;;;;;26.42;20.17;;;;;;;8.71;100.00;101986.28;6216356;23;20482;-78
2022/03/17 01:03:29;;;;;;;27.17;20.58;;;;;;;8.69;100.00;101975.72;6211542;23;20465;-78
2022/03/17 01:05:59;;;;;;;30.90;20.63;;;;;;;8.68;100.00;101973.09;6156887;23;20020;-77
2022/03/17 01:08:29;;;;;;;27.13;21.65;;;;;;;8.68;100.00;101975.72;6210932;23;20047;-78
2022/03/17 01:10:57;;;;;;;28.57;21.30;;;;;;;8.67;100.00;101960.78;6242056;23;20016;-78
2022/03/17 01:13:26;;;;;;;28.65;21.13;;;;;;;8.67;100.00;101966.03;6213404;23;20012;-78
2022/03/17 01:15:54;;;;;;;32.10;21.23;;;;;;;8.66;100.00;101965.16;6192056;23;20346;-79
2022/03/17 01:18:24;;;;;;;28.58;21.73;;;;;;;8.66;100.00;101954.66;6189370;23;20031;-78
2022/03/17 01:20:57;;;;;;;27.10;21.67;;;;;;;8.65;100.00;101951.97;6226019;23;20016;-78
2022/03/17 01:23:26;;;;;;;30.48;21.48;;;;;;;8.63;100.00;101949.28;6214193;23;20023;-78
2022/03/17 01:25:55;;;;;;;27.27;20.05;;;;;;;8.63;100.00;101943.16;6215273;23;20024;-78
2022/03/17 01:28:24;;;;;;;31.20;22.88;;;;;;;8.64;100.00;101940.56;6216910;23;20016;-79
2022/03/17 01:30:53;;;;;;;27.88;21.38;;;;;;;8.62;100.00;101939.63;6240086;23;20016;-78
2022/03/17 01:33:22;;;;;;;30.88;21.52;;;;;;;8.63;100.00;101944.03;6210790;23;20020;-78
2022/03/17 01:35:51;;;;;;;31.77;23.13;;;;;;;8.63;100.00;101935.28;6200585;23;20031;-78
2022/03/17 01:38:19;;;;;;;28.00;22.23;;;;;;;8.63;100.00;101941.41;6208386;23;20023;-78
2022/03/17 01:40:51;;;;;;;29.67;22.58;;;;;;;8.63;100.00;101935.28;6241214;23;20017;-78
2022/03/17 01:43:20;;;;;;;30.52;20.85;;;;;;;8.62;100.00;101937.00;6200341;23;20028;-79
2022/03/17 01:45:51;;;;;;;28.65;21.25;;;;;;;8.62;100.00;101936.09;6204558;23;20012;-79
2022/03/17 01:48:21;;;;;;;27.98;21.35;;;;;;;8.62;100.00;101928.22;6209619;23;20027;-77
2022/03/17 01:50:50;;;;;;;30.47;23.27;;;;;;;8.62;100.00;101925.59;6189547;23;20024;-77
2022/03/17 01:53:22;;;;;;;32.03;21.73;;;;;;;8.61;100.00;101921.19;6156900;23;20255;-77
2022/03/17 01:55:51;;;;;;;29.27;21.58;;;;;;;8.62;100.00;101917.72;6215422;23;20027;-79
2022/03/17 01:58:21;;;;;;;30.15;21.80;;;;;;;8.61;100.00;101911.56;6223182;23;20024;-78
2022/03/17 02:00:50;;;;;;;27.45;21.90;;;;;;;8.59;100.00;101916.78;6199839;23;20024;-78
2022/03/17 02:03:21;;;;;;;26.77;21.77;;;;;;;8.58;100.00;101907.13;6193962;23;20032;-77
2022/03/17 02:05:51;;;;;;;31.75;21.75;;;;;;;8.57;100.00;101902.72;6152894;23;20020;-79
2022/03/17 02:08:22;;;;;;;28.48;21.75;;;;;;;8.57;100.00;101907.09;6209662;23;20012;-79
2022/03/17 02:13:39;;;;;;;25.92;21.45;;;;;;;8.56;100.00;101897.41;6185220;23;20021;-78
2022/03/17 02:16:07;;;;;;;29.63;20.67;;;;;;;8.56;100.00;101898.31;6213338;23;20459;-77
2022/03/17 02:18:36;;;;;;;28.90;23.17;;;;;;;8.56;100.00;101900.94;6206022;23;20521;-78
2022/03/17 02:21:05;;;;;;;28.90;21.13;;;;;;;8.56;100.00;101903.56;6214004;23;20021;-78
2022/03/17 02:26:21;;;;;;;28.15;20.92;;;;;;;8.56;100.00;101897.41;6185174;23;20016;-78
2022/03/17 02:28:50;;;;;;;29.05;22.25;;;;;;;8.57;100.00;101899.19;6209281;23;20465;-78
2022/03/17 02:31:19;;;;;;;29.02;22.15;;;;;;;8.57;100.00;101880.81;6149563;23;20027;-78
2022/03/17 02:33:50;;;;;;;27.27;20.85;;;;;;;8.57;100.00;101891.31;6211905;23;20060;-78
2022/03/17 02:36:20;;;;;;;29.65;20.95;;;;;;;8.56;100.00;101879.94;6225791;23;20024;-78
2022/03/17 02:38:50;;;;;;;27.70;21.50;;;;;;;8.56;100.00;101866.78;6174859;23;20575;-78
2022/03/17 02:41:22;;;;;;;28.30;22.48;;;;;;;8.56;100.00;101879.94;6211725;23;20025;-78
2022/03/17 02:43:54;;;;;;;29.02;20.98;;;;;;;8.55;100.00;101872.88;6187243;23;20024;-78
2022/03/17 02:46:22;;;;;;;31.52;22.30;;;;;;;8.56;100.00;101879.94;6174542;23;20024;-78
2022/03/17 02:48:53;;;;;;;29.38;21.02;;;;;;;8.54;100.00;101876.38;6211098;23;20020;-78
2022/03/17 02:51:22;;;;;;;28.65;22.00;;;;;;;8.54;100.00;101881.63;6236482;23;20016;-78
2022/03/17 02:53:51;;;;;;;26.77;21.05;;;;;;;8.54;100.00;101878.09;6238868;23;20445;-78
2022/03/17 02:56:21;;;;;;;30.35;20.48;;;;;;;8.55;100.00;101893.00;6183764;23;20350;-77
2022/03/17 02:58:51;;;;;;;33.45;22.30;;;;;;;8.54;100.00;101886.88;6209325;23;20025;-78
2022/03/17 03:01:19;;;;;;;28.10;21.45;;;;;;;8.56;100.00;101882.56;6204643;23;20013;-79
2022/03/17 03:03:48;;;;;;;28.60;22.42;;;;;;;8.57;100.00;101889.56;6208881;23;20020;-78
2022/03/17 03:06:17;;;;;;;35.03;22.83;;;;;;;8.57;100.00;101886.94;6177675;23;20024;-78
2022/03/17 03:08:47;;;;;;;34.13;21.95;;;;;;;8.56;100.00;101887.81;6236894;23;20069;-78
2022/03/17 03:11:16;;;;;;;28.95;21.90;;;;;;;8.53;100.00;101874.56;6164289;23;20035;-77
2022/03/17 03:13:44;;;;;;;30.67;23.30;;;;;;;8.51;100.00;101876.28;6171227;23;20422;-79
2022/03/17 03:16:15;;;;;;;28.92;21.73;;;;;;;8.51;100.00;101880.66;6187576;23;20004;-79
2022/03/17 03:18:44;;;;;;;29.02;21.58;;;;;;;8.50;100.00;101878.84;6212253;23;20024;-79
2022/03/17 03:21:14;;;;;;;30.60;22.20;;;;;;;8.49;100.00;101883.22;6161725;23;20024;-80
2022/03/17 03:23:42;;;;;;;28.77;21.42;;;;;;;8.50;100.00;101878.84;6188343;23;20586;-78
2022/03/17 03:26:11;;;;;;;29.15;22.35;;;;;;;8.51;100.00;101889.41;6224412;23;20541;-78
2022/03/17 03:28:39;;;;;;;29.17;22.40;;;;;;;8.51;100.00;101880.66;6167620;23;20029;-78
2022/03/17 03:31:08;;;;;;;28.20;21.67;;;;;;;8.52;100.00;101883.28;6216478;23;20319;-77
2022/03/17 03:33:38;;;;;;;28.30;20.75;;;;;;;8.55;100.00;101872.00;6228955;23;20025;-78
2022/03/17 03:38:54;;;;;;;33.17;22.88;;;;;;;8.59;100.00;101882.63;6206032;23;20025;-77
2022/03/17 03:41:22;;;;;;;27.50;21.45;;;;;;;8.62;100.00;101888.81;6165368;23;20027;-77
2022/03/17 03:43:51;;;;;;;29.10;20.35;;;;;;;8.63;100.00;101875.72;6213470;23;20013;-78
2022/03/17 03:46:19;;;;;;;27.15;21.00;;;;;;;8.65;100.00;101873.13;6185928;23;20032;-78
2022/03/17 03:48:54;;;;;;;28.77;19.75;;;;;;;8.66;100.00;101874.91;6146461;23;20020;-79
2022/03/17 03:51:22;;;;;;;27.15;19.58;;;;;;;8.67;100.00;101880.19;6201318;23;20020;-78
2022/03/17 03:56:38;;;;;;;28.08;20.35;;;;;;;8.71;100.00;101881.19;6214753;23;20047;-78
2022/03/17 03:59:08;;;;;;;33.28;21.15;;;;;;;8.71;100.00;101882.06;6139456;23;20020;-78
2022/03/17 04:01:37;;;;;;;31.45;23.40;;;;;;;8.72;100.00;101883.84;6198604;23;20021;-78
2022/03/17 04:04:05;;;;;;;29.65;21.42;;;;;;;8.72;100.00;101875.97;6215108;23;20017;-79
2022/03/17 04:06:40;;;;;;;28.75;21.25;;;;;;;8.75;100.00;101883.94;6210795;23;20016;-78
2022/03/17 04:09:08;;;;;;;29.48;21.13;;;;;;;8.77;100.00;101883.97;6205581;23;20024;-78
2022/03/17 04:11:37;;;;;;;28.10;21.70;;;;;;;8.77;100.00;101873.44;6215258;23;20023;-78
2022/03/17 04:14:06;;;;;;;26.33;21.13;;;;;;;8.77;100.00;101874.38;6198110;23;20031;-78
2022/03/17 04:16:35;;;;;;;28.58;21.00;;;;;;;8.78;100.00;101880.50;6211100;23;20337;-78
2022/03/17 04:19:04;;;;;;;29.77;20.95;;;;;;;8.80;100.00;101877.91;6219706;23;20020;-78
2022/03/17 04:21:32;;;;;;;27.05;19.48;;;;;;;8.81;100.00;101869.16;6234856;23;20024;-78
2022/03/17 04:24:01;;;;;;;27.80;20.45;;;;;;;8.82;100.00;101884.09;6217564;23;20031;-78
2022/03/17 04:26:30;;;;;;;26.83;21.63;;;;;;;8.83;100.00;101877.97;6214691;23;20020;-78
2022/03/17 04:28:58;;;;;;;25.92;21.65;;;;;;;8.83;100.00;101877.97;6198125;23;20043;-79
2022/03/17 04:31:28;;;;;;;31.73;20.20;;;;;;;8.84;100.00;101879.78;6208896;23;20012;-79
2022/03/17 04:33:57;;;;;;;29.10;21.13;;;;;;;8.84;100.00;101885.91;6230206;23;20020;-78
2022/03/17 04:36:26;;;;;;;25.20;21.17;;;;;;;8.85;100.00;101879.81;6172323;23;20463;-79
2022/03/17 04:38:54;;;;;;;26.95;21.27;;;;;;;8.85;100.00;101882.47;6241193;23;20024;-77
2022/03/17 04:41:23;;;;;;;31.95;22.20;;;;;;;8.86;100.00;101889.47;6212647;23;20044;-80
2022/03/17 04:43:51;;;;;;;31.48;22.30;;;;;;;8.87;100.00;101888.66;6201685;23;20012;-77
2022/03/17 04:46:20;;;;;;;28.33;21.83;;;;;;;8.87;100.00;101895.66;6213610;23;20481;-79
2022/03/17 04:48:49;;;;;;;33.58;22.20;;;;;;;8.86;100.00;101899.09;6204922;23;20028;-78
2022/03/17 04:51:19;;;;;;;32.05;22.17;;;;;;;8.84;100.00;101892.94;6239888;23;20017;-78
2022/03/17 04:53:47;;;;;;;27.77;21.85;;;;;;;8.83;100.00;101899.94;6190006;23;20028;-78
2022/03/17 04:56:20;;;;;;;28.85;22.58;;;;;;;8.80;100.00;101909.47;6215819;23;20016;-78
2022/03/17 04:58:48;;;;;;;28.55;22.70;;;;;;;8.77;100.00;101926.00;6222130;23;20024;-77
2022/03/17 05:01:18;;;;;;;30.33;22.50;;;;;;;8.76;100.00;101937.41;6157442;23;20060;-78
2022/03/17 05:03:47;;;;;;;30.80;22.75;;;;;;;8.73;100.00;101932.03;6240338;23;20229;-78
2022/03/17 05:06:16;;;;;;;32.28;25.40;;;;;;;8.72;100.00;101943.41;6240384;23;20022;-78
2022/03/17 05:08:44;;;;;;;36.03;26.20;;;;;;;8.71;100.00;101944.25;6180898;23;20028;-78
2022/03/17 05:11:14;;;;;;;42.40;27.45;;;;;;;8.68;100.00;101954.69;6242490;23;20029;-78
2022/03/17 05:13:46;;;;;;;38.58;28.67;;;;;;;8.65;100.00;101959.84;6186415;23;20027;-78
2022/03/17 05:16:15;;;;;;;40.42;29.15;;;;;;;8.57;100.00;101960.50;6204054;23;20024;-78
2022/03/17 05:18:44;;;;;;;44.70;31.25;;;;;;;8.53;100.00;101963.91;6164998;23;20039;-77
2022/03/17 05:21:13;;;;;;;44.38;31.02;;;;;;;8.47;100.00;101970.69;6191716;23;20454;-78
2022/03/17 05:23:42;;;;;;;52.15;33.78;;;;;;;8.41;100.00;101974.00;6210832;23;20221;-78
2022/03/17 05:26:10;;;;;;;46.80;32.92;;;;;;;8.37;100.00;101973.03;6217100;23;20027;-79
2022/03/17 05:28:39;;;;;;;50.45;34.50;;;;;;;8.35;100.00;101984.31;6180019;23;20024;-78
2022/03/17 05:31:07;;;;;;;49.47;35.22;;;;;;;8.33;100.00;101991.25;6206387;23;20028;-79
2022/03/17 05:33:36;;;;;;;54.25;36.65;;;;;;;8.30;100.00;101985.91;6235439;23;20246;-79
2022/03/17 05:36:05;;;;;;;51.05;36.50;;;;;;;8.28;100.00;101996.41;6180978;23;20027;-77
2022/03/17 05:38:33;;;;;;;50.60;37.45;;;;;;;8.25;100.00;101990.16;6235198;23;20024;-78
2022/03/17 05:41:03;;;;;;;56.58;39.10;;;;;;;8.23;100.00;101997.97;6217188;23;20021;-77
2022/03/17 05:43:31;;;;;;;64.55;41.45;;;;;;;8.24;100.00;102012.00;6210832;23;20012;-78
2022/03/17 05:46:00;;;;;;;66.40;41.03;;;;;;;8.23;100.00;102010.22;6202036;23;20020;-77
2022/03/17 05:48:28;;;;;;;61.03;40.17;;;;;;;8.23;100.00;102015.47;6176523;23;20556;-78
2022/03/17 05:50:57;;;;;;;59.08;38.15;;;;;;;8.22;100.00;102029.44;6211850;23;20039;-78
2022/03/17 05:53:28;;;;;;;52.08;34.63;;;;;;;8.23;100.00;102044.34;6199470;23;20016;-79
2022/03/17 05:55:56;;;;;;;35.35;24.63;;;;;;;8.20;100.00;102058.25;6206367;23;20123;-78
2022/03/17 05:58:27;;;;;;;17.95;12.73;;;;;;;8.09;100.00;102060.56;6203096;23;20028;-78
2022/03/17 06:00:57;;;;;;;10.82;9.07;;;;;;;7.88;100.00;102083.44;6215236;23;20517;-77
2022/03/17 06:03:25;;;;;;;9.20;8.30;;;;;;;7.73;100.00;102092.59;6216411;23;20013;-78
2022/03/17 06:05:54;;;;;;;8.38;7.40;;;;;;;7.60;100.00;102117.50;6180606;23;20024;-77
2022/03/17 06:08:22;;;;;;;7.95;6.78;;;;;;;7.53;100.00;102130.34;6202661;23;20012;-78
2022/03/17 06:10:52;;;;;;;7.90;6.80;;;;;;;7.42;100.00;102138.69;6207545;23;20209;-78
2022/03/17 06:13:20;;;;;;;8.43;6.82;;;;;;;7.37;100.00;102127.16;6235265;23;20023;-77
2022/03/17 06:15:49;;;;;;;8.80;7.38;;;;;;;7.34;100.00;102123.53;6186307;23;20245;-77
2022/03/17 06:18:19;;;;;;;9.65;7.55;;;;;;;7.30;100.00;102127.78;6239297;23;20025;-78
2022/03/17 06:20:47;;;;;;;15.15;8.70;;;;;;;7.27;100.00;102142.50;6183926;23;20023;-77
2022/03/17 06:23:15;;;;;;;18.80;11.15;;;;;;;7.21;100.00;102158.88;6181008;23;20020;-78
2022/03/17 06:25:44;;;;;;;19.58;12.05;;;;;;;7.19;100.00;102160.56;6208016;23;20032;-78
2022/03/17 06:28:14;;;;;;;22.50;12.77;;;;;;;7.15;100.00;102170.03;6194214;23;20355;-78
2022/03/17 06:30:43;;;;;;;21.35;12.77;;;;;;;7.13;100.00;102181.31;6209583;23;20024;-78
2022/03/17 06:33:11;;;;;;;22.52;13.43;;;;;;;7.08;100.00;102175.00;6204067;23;20035;-78
2022/03/17 06:35:42;;;;;;;21.45;12.93;;;;;;;7.06;100.00;102184.53;6208581;23;20024;-78
2022/03/17 06:38:11;;;;;;;;;;;;;;;7.03;100.00;102188.81;6173210;23;20020;-78
2022/03/17 06:40:39;;;;;;;22.25;11.77;;;;;;;7.02;100.00;102201.84;6211424;23;19915;-79
2022/03/17 06:43:08;;;;;;;28.90;13.68;;;;;;;7.01;100.00;102208.81;6236155;23;20350;-78
2022/03/17 06:45:36;;;;;;;22.27;13.15;;;;;;;7.00;100.00;102204.41;6183363;23;20319;-77
2022/03/17 06:48:07;;;;;;;22.27;13.05;;;;;;;7.00;100.00;102214.88;6162899;23;20354;-79
2022/03/17 06:50:36;;;;;;;19.20;10.15;;;;;;;6.98;100.00;102232.28;6211085;23;20016;-78
2022/03/17 06:53:07;;;;;;;19.08;8.90;;;;;;;6.96;100.00;102233.06;6211239;23;20024;-78
2022/03/17 06:55:35;;;;;;;22.60;8.18;;;;;;;6.96;100.00;102236.56;6210998;23;20044;-77
2022/03/17 06:58:04;;;;;;;19.45;6.28;;;;;;;6.94;100.00;102253.06;6206573;23;20194;-77
2022/03/17 07:00:33;;;;;;;18.95;6.00;;;;;;;6.93;100.00;102260.03;6212865;23;20040;-78
2022/03/17 07:03:02;;;;;;;16.48;5.90;;;;;;;6.93;100.00;102253.91;6140741;23;20025;-78
2022/03/17 07:05:31;;;;;;;15.52;5.95;;;;;;;6.91;100.00;102269.56;6222269;23;20342;-80
2022/03/17 07:08:02;;;;;;;14.63;5.53;;;;;;;6.90;100.00;102277.34;6181043;23;20027;-80
2022/03/17 07:10:34;;;;;;;10.57;5.30;;;;;;;6.87;100.00;102285.97;6192584;23;20028;-80
2022/03/17 07:13:02;;;;;;;11.93;3.97;;;;;;;6.86;100.00;102299.91;6165892;23;20021;-82
2022/03/17 07:15:31;;;;;;;9.88;4.13;;;;;;;6.86;100.00;102297.28;6193926;23;20024;-80
2022/03/17 07:18:00;;;;;;;18.83;5.80;;;;;;;6.86;100.00;102317.34;6180751;23;20020;-80
2022/03/17 07:20:29;;;;;;;8.30;3.50;;;;;;;6.86;100.00;102326.09;6177229;23;20453;-81
2022/03/17 07:22:57;;;;;;;9.88;3.90;;;;;;;6.86;100.00;102322.59;6244453;23;20230;-80
2022/03/17 07:25:27;;;;;;;14.15;4.28;;;;;;;6.84;100.00;102327.78;6190715;23;20229;-79
2022/03/17 07:27:58;;;;;;;;;;;;;;;6.76;100.00;102337.94;6204024;23;20029;-79
2022/03/17 07:30:31;;;;;;;11.77;3.83;;;;;;;6.75;100.00;102349.25;6204715;23;19927;-80
2022/03/17 07:33:00;;;;;;;9.60;2.83;;;;;;;6.75;100.00;102351.00;6187694;23;20069;-80
2022/03/17 07:35:29;;;;;;;8.63;2.50;;;;;;;6.73;100.00;102361.41;6189508;23;20019;-80
2022/03/17 07:37:58;;;;;;;7.78;2.42;;;;;;;6.72;100.00;102362.22;6225497;23;20362;-80
2022/03/17 07:40:27;;;;;;;7.57;2.45;;;;;;;6.72;100.00;102371.81;6140058;23;20240;-79
2022/03/17 07:42:56;;;;;;;7.78;2.30;;;;;;;6.71;100.00;102372.63;6190259;23;20450;-79
2022/03/17 07:45:43;;;;;;;6.28;1.83;;;;;;;6.73;100.00;102378.81;6253408;23;20024;-79
2022/03/17 07:48:30;;;;;;;7.90;2.05;;;;;;;6.77;100.00;102386.91;6230247;23;20019;-80
2022/03/17 07:51:08;;;;;;;11.52;2.67;;;;;;;6.81;100.00;102395.78;6161510;23;20031;-79
2022/03/17 07:53:39;;;;;;;7.15;2.10;;;;;;;6.83;100.00;102396.75;6176230;23;20357;-79
2022/03/17 07:56:10;;;;;;;8.68;1.90;;;;;;;6.84;100.00;102406.38;6220368;23;20016;-79
2022/03/17 07:58:42;;;;;;;11.02;2.03;;;;;;;6.86;100.00;102406.44;6219997;23;20111;-78
2022/03/17 08:01:11;;;;;;;7.75;1.98;;;;;;;6.86;100.00;102409.97;6134061;23;20035;-80
2022/03/17 08:03:40;;;;;;;8.45;2.28;;;;;;;6.87;100.00;102414.38;6230848;23;20464;-80
2022/03/17 08:06:11;;;;;;;9.18;2.20;;;;;;;6.83;100.00;102415.09;6155049;23;20320;-80
2022/03/17 08:08:41;;;;;;;13.82;2.28;;;;;;;6.82;100.00;102431.63;6168840;23;20024;-79
2022/03/17 08:11:10;;;;;;;13.90;2.97;;;;;;;6.80;100.00;102434.16;6220499;23;20513;-80
2022/03/17 08:13:41;;;;;;;10.07;2.53;;;;;;;6.77;100.00;102447.16;6228390;23;20173;-80
2022/03/17 08:16:10;;;;;;;11.77;2.22;;;;;;;6.74;100.00;102439.16;6206577;23;20035;-80
2022/03/17 08:18:39;;;;;;;11.63;2.33;;;;;;;6.75;100.00;102458.41;6194592;23;20016;-79
2022/03/17 08:21:08;;;;;;;13.13;2.38;;;;;;;6.74;100.00;102451.38;6208913;23;20016;-80
2022/03/17 08:23:41;;;;;;;14.35;2.42;;;;;;;6.74;100.00;102467.97;6194130;23;20119;-78
2022/03/17 08:26:10;;;;;;;6.93;2.63;;;;;;;6.79;100.00;102465.56;6251373;23;20012;-82
2022/03/17 08:28:38;;;;;;;12.05;2.20;;;;;;;6.83;100.00;102462.25;6141385;23;20356;-80
2022/03/17 08:31:07;;;;;;;9.90;2.22;;;;;;;6.86;100.00;102478.09;6162961;23;20024;-81
2022/03/17 08:33:37;;;;;;;15.55;2.33;;;;;;;6.87;100.00;102493.00;6219464;23;20050;-80
2022/03/17 08:36:07;;;;;;;17.55;2.92;;;;;;;6.88;100.00;102502.69;6151352;23;20013;-80
2022/03/17 08:38:39;;;;;;;7.28;2.33;;;;;;;6.88;100.00;102510.53;6162342;23;20020;-80
2022/03/17 08:41:07;;;;;;;12.15;2.60;;;;;;;6.87;100.00;102518.31;6194028;23;20508;-82
2022/03/17 08:43:36;;;;;;;13.95;3.40;;;;;;;6.85;100.00;102519.97;6224971;23;20027;-79
2022/03/17 08:51:39;;;;;;;16.80;3.00;;;;;;;6.92;100.00;102538.66;6160130;23;20020;-79
2022/03/17 08:54:07;;;;;;;17.75;3.55;;;;;;;6.95;100.00;102557.13;6208495;23;20155;-79
2022/03/17 08:56:36;;;;;;;16.95;3.03;;;;;;;6.95;100.00;102559.75;6186130;23;20016;-80
2022/03/17 08:59:10;;;;;;;17.58;3.30;;;;;;;6.92;100.00;102559.63;6161968;23;20449;-81
2022/03/17 09:01:38;;;;;;;23.80;4.90;;;;;;;6.94;100.00;102560.59;6140798;23;20024;-79
2022/03/17 09:04:07;;;;;;;16.83;3.35;;;;;;;6.98;100.00;102570.38;6212175;23;20063;-79
2022/03/17 09:06:37;;;;;;;16.63;2.95;;;;;;;7.01;100.00;102580.09;6241335;23;20016;-80
2022/03/17 09:09:08;;;;;;;11.98;2.22;;;;;;;6.99;100.00;102572.19;6200613;23;20031;-80
2022/03/17 09:11:45;;;;;;;14.20;3.10;;;;;;;6.98;100.00;102585.22;6226535;23;20020;-79
2022/03/17 09:14:18;;;;;;;13.82;3.13;;;;;;;6.98;100.00;102590.47;6214109;23;20026;-79
2022/03/17 09:16:49;;;;;;;8.95;2.30;;;;;;;6.95;100.00;102595.56;6214728;23;20020;-79
2022/03/17 09:19:22;;;;;;;13.77;2.88;;;;;;;6.91;100.00;102602.38;6191743;23;20143;-81
2022/03/17 09:21:51;;;;;;;16.80;3.03;;;;;;;6.90;100.00;102613.72;6139343;23;20023;-79
2022/03/17 09:24:24;;;;;;;15.60;2.15;;;;;;;6.91;100.00;102627.69;6157586;23;20245;-80
2022/03/17 09:26:55;;;;;;;7.57;2.53;;;;;;;6.86;100.00;102627.47;6222609;23;20012;-80
2022/03/17 09:29:30;;;;;;;18.42;2.92;;;;;;;6.82;100.00;102634.31;6224202;23;20555;-79
2022/03/17 09:32:04;;;;;;;12.77;3.00;;;;;;;6.88;100.00;102631.09;6186318;23;20020;-80
2022/03/17 09:34:40;;;;;;;17.63;3.22;;;;;;;6.95;100.00;102646.25;6152181;23;20033;-80
2022/03/17 09:37:11;;;;;;;16.42;2.80;;;;;;;7.02;100.00;102656.19;6175644;23;20158;-81
2022/03/17 09:39:45;;;;;;;7.37;2.20;;;;;;;7.04;100.00;102658.91;6178103;23;20016;-80
2022/03/17 09:42:18;;;;;;;13.15;2.83;;;;;;;7.05;100.00;102655.47;6150950;23;20028;-79
2022/03/17 09:44:55;;;;;;;14.80;2.50;;;;;;;7.06;100.00;102672.09;6189353;23;20028;-80
2022/03/17 09:47:27;;;;;;;11.88;2.65;;;;;;;7.05;100.00;102665.03;6188519;23;20017;-80
2022/03/17 09:50:01;;;;;;;15.02;2.53;;;;;;;7.05;100.00;102668.56;6172566;23;20021;-80
2022/03/17 09:52:38;;;;;;;20.73;3.05;;;;;;;7.07;100.00;102677.41;6181931;23;20250;-81
2022/03/17 09:55:10;;;;;;;13.98;2.60;;;;;;;7.09;100.00;102687.94;6120316;23;20031;-81
2022/03/17 09:57:42;;;;;;;16.00;3.08;;;;;;;7.14;100.00;102686.44;6163029;23;20355;-81
2022/03/17 10:00:15;;;;;;;14.25;3.55;;;;;;;7.20;100.00;102697.19;6152141;23;20032;-81
2022/03/17 10:02:47;;;;;;;21.08;3.25;;;;;;;7.29;100.00;102717.72;6152136;23;20025;-78
2022/03/17 10:05:22;;;;;;;14.75;3.45;;;;;;;7.34;100.00;102711.88;6148157;23;20017;-79
2022/03/17 10:07:54;;;;;;;12.20;2.50;;;;;;;7.39;100.00;102720.84;6130968;23;20355;-79
2022/03/17 10:10:35;;;;;;;;;;;;;;;7.42;100.00;102734.09;6126339;23;20238;-80
2022/03/17 10:13:06;;;;;;;10.23;2.20;;;;;;;7.49;100.00;102727.41;6187401;23;19916;-80
2022/03/17 10:15:34;;;;;;;12.73;2.55;;;;;;;7.56;100.00;102732.13;6179761;23;20025;-80
2022/03/17 10:18:23;;;;;;;12.45;3.30;;;;;;;7.69;100.00;102745.78;6164975;23;20015;-80
2022/03/17 10:21:06;;;;;;;6.53;2.00;;;;;;;7.84;100.00;102745.56;6128641;23;20024;-80
2022/03/17 10:23:44;;;;;;;10.48;2.67;;;;;;;7.96;100.00;102751.38;6199500;23;20017;-79
2022/03/17 10:26:39;;;;;;;15.13;2.40;;;;;;;8.03;100.00;102756.06;6169140;23;20146;-79
2022/03/17 10:29:12;;;;;;;15.25;3.13;;;;;;;8.05;100.00;102766.63;6161969;23;20021;-79
2022/03/17 10:32:20;;;;;;;14.60;2.78;;;;;;;8.07;100.00;102775.47;6191771;23;20021;-79
2022/03/17 10:34:48;;;;;;;17.52;3.38;;;;;;;8.07;100.00;102783.34;6197271;23;20023;-80
2022/03/17 10:37:19;;;;;;;11.90;2.78;;;;;;;8.03;100.00;102799.81;6204231;23;20008;-80
2022/03/17 10:39:50;;;;;;;15.63;2.53;;;;;;;8.01;100.00;102797.09;6197542;23;20020;-79
2022/03/17 10:42:23;;;;;;;14.80;3.55;;;;;;;8.15;100.00;102795.13;6149469;23;20025;-81
2022/03/17 10:45:03;;;;;;;10.57;2.78;;;;;;;8.23;100.00;102791.09;6222921;23;20016;-79
2022/03/17 10:47:34;;;;;;;12.60;2.88;;;;;;;8.31;100.00;102813.31;6223570;23;20012;-80
2022/03/17 10:50:16;;;;;;;12.98;2.90;;;;;;;8.36;100.00;102810.91;6241745;23;20021;-79
2022/03/17 10:52:57;;;;;;;17.92;4.18;;;;;;;8.38;100.00;102806.63;6208556;23;20021;-80
2022/03/17 10:55:28;;;;;;;16.13;2.90;;;;;;;8.51;100.00;102814.22;6244949;23;20021;-79
2022/03/17 10:58:09;;;;;;;16.02;2.20;;;;;;;8.63;100.00;102827.00;6234128;23;20021;-80
2022/03/17 11:00:45;;;;;;;10.60;2.67;;;;;;;8.72;100.00;102837.00;6245926;23;20027;-81
2022/03/17 11:03:15;;;;;;;9.35;2.92;;;;;;;8.74;100.00;102840.59;6216063;23;20234;-79
2022/03/17 11:05:44;;;;;;;13.23;3.15;;;;;;;8.68;100.00;102845.59;6207508;23;20020;-79
2022/03/17 11:08:15;;;;;;;31.20;5.93;;;;;;;8.61;100.00;102864.56;6236260;23;20020;-79
2022/03/17 11:10:44;;;;;;;12.23;3.35;;;;;;;8.62;100.00;102854.13;6158443;23;20464;-79
2022/03/17 11:13:15;;;;;;;15.07;3.50;;;;;;;8.80;100.00;102859.25;6178579;23;20024;-80
2022/03/17 11:15:48;;;;;;;11.10;2.50;;;;;;;9.00;100.00;102861.81;6216276;23;20028;-81
2022/03/17 11:18:21;;;;;;;10.40;2.25;;;;;;;9.12;100.00;102864.97;6216728;23;20513;-78
2022/03/17 11:21:13;;;;;;;24.50;3.55;;;;;;;9.23;100.00;102874.22;6239295;23;20328;-78
2022/03/17 11:24:05;;;;;;;8.75;2.63;;;;;;;9.29;100.00;102884.09;6193416;23;20331;-79
2022/03/17 11:26:40;;;;;;;16.67;2.75;;;;;;;9.41;100.00;102888.94;6217684;23;20016;-78
2022/03/17 11:29:10;;;;;;;14.15;2.88;;;;;;;9.60;100.00;102886.22;6184575;23;20513;-79
2022/03/17 11:31:57;;;;;;;10.07;2.75;;;;;;;9.69;100.00;102905.00;6217126;23;20024;-78
2022/03/17 11:35:04;;;;;;;10.90;3.22;;;;;;;9.83;100.00;102912.53;6215441;23;20024;-78
2022/03/17 11:37:33;;;;;;;11.45;3.25;;;;;;;9.84;100.00;102923.16;6186275;23;20343;-79
2022/03/17 11:40:21;;;;;;;13.00;2.67;;;;;;;9.81;100.00;102924.75;6179770;23;20031;-78
2022/03/17 11:43:04;;;;;;;14.43;2.83;;;;;;;9.84;100.00;102927.53;6212643;23;20028;-78
2022/03/17 11:45:37;;;;;;;12.57;2.85;;;;;;;9.81;100.00;102930.03;6176166;23;20032;-79
2022/03/17 11:48:11;;;;;;;11.75;2.72;;;;;;;9.87;98.82;102938.19;6222260;23;20044;-78